createdAt,value
2023-07-05T00:00:21.586Z,65.7
2023-07-05T00:00:43.907Z,65.8
2023-07-05T00:01:28.754Z,66.5
2023-07-05T00:01:51.126Z,66.7
2023-07-05T00:02:35.871Z,67.1
2023-07-05T00:02:58.312Z,66.8
2023-07-05T00:03:43.062Z,67.1
2023-07-05T00:04:05.485Z,67.3
2023-07-05T00:04:46.708Z,67.2
2023-07-05T00:05:09.010Z,67.3
2023-07-05T00:05:54.418Z,67.3
2023-07-05T00:06:16.929Z,67.3
2023-07-05T00:07:01.666Z,67.2
2023-07-05T00:07:23.988Z,67.1
2023-07-05T00:08:08.611Z,66.8
2023-07-05T00:08:30.924Z,66.8
2023-07-05T00:09:15.566Z,67.3
2023-07-05T00:09:37.896Z,67.7
2023-07-05T00:10:22.581Z,67.5
2023-07-05T00:10:44.907Z,67.4
2023-07-05T00:11:29.597Z,67.4
2023-07-05T00:11:51.980Z,67.3
2023-07-05T00:12:36.594Z,67.4
2023-07-05T00:12:58.907Z,67.3
2023-07-05T00:13:43.665Z,67.2
2023-07-05T00:14:06.070Z,67.2
2023-07-05T00:14:47.437Z,67.1
2023-07-05T00:15:09.713Z,67
2023-07-05T00:15:54.949Z,66.9
2023-07-05T00:16:17.468Z,66.9
2023-07-05T00:17:02.124Z,67.4
2023-07-05T00:17:24.446Z,67.2
2023-07-05T00:18:09.098Z,67.6
2023-07-05T00:18:31.440Z,67.9
2023-07-05T00:19:16.095Z,68
2023-07-05T00:19:38.415Z,68.1
2023-07-05T00:20:23.104Z,68.8
2023-07-05T00:20:45.494Z,68.6
2023-07-05T00:21:30.112Z,68.3
2023-07-05T00:21:52.426Z,68.2
2023-07-05T00:22:37.072Z,67.6
2023-07-05T00:22:59.561Z,67.6
2023-07-05T00:23:44.178Z,67.6
2023-07-05T00:24:06.501Z,67.7
2023-07-05T00:24:51.151Z,68.2
2023-07-05T00:25:10.033Z,68.3
2023-07-05T00:25:55.010Z,68.7
2023-07-05T00:26:17.475Z,69.4
2023-07-05T00:27:01.995Z,68.9
2023-07-05T00:27:24.309Z,69.2
2023-07-05T00:28:08.953Z,69.3
2023-07-05T00:28:31.280Z,69.2
2023-07-05T00:29:15.977Z,69.3
2023-07-05T00:29:38.284Z,70.1
2023-07-05T00:30:22.938Z,70.1
2023-07-05T00:30:45.257Z,69.5
2023-07-05T00:31:29.801Z,69.7
2023-07-05T00:31:52.268Z,69.8
2023-07-05T00:32:36.980Z,70.8
2023-07-05T00:32:59.348Z,69.9
2023-07-05T00:33:44.047Z,69.9
2023-07-05T00:34:06.374Z,69.9
2023-07-05T00:34:51.034Z,70.9
2023-07-05T00:35:13.498Z,71.3
2023-07-05T00:35:55.201Z,70.9
2023-07-05T00:36:17.762Z,71
2023-07-05T00:37:02.417Z,70.2
2023-07-05T00:37:24.738Z,69.6
2023-07-05T00:38:09.345Z,70
2023-07-05T00:38:31.667Z,69.8
2023-07-05T00:39:16.364Z,69.7
2023-07-05T00:39:38.665Z,69.9
2023-07-05T00:40:23.293Z,70.9
2023-07-05T00:40:45.606Z,70.8
2023-07-05T00:41:30.255Z,70.8
2023-07-05T00:41:52.713Z,70.9
2023-07-05T00:42:37.363Z,70.6
2023-07-05T00:42:59.801Z,70.5
2023-07-05T00:43:44.525Z,70.2
2023-07-05T00:44:07.165Z,69.6
2023-07-05T00:44:51.964Z,70.5
2023-07-05T00:45:14.381Z,69.6
2023-07-05T00:45:55.898Z,68.7
2023-07-05T00:46:18.522Z,68.6
2023-07-05T00:47:03.198Z,68.4
2023-07-05T00:47:25.576Z,68.4
2023-07-05T00:48:10.237Z,67.7
2023-07-05T00:48:32.561Z,68.5
2023-07-05T00:49:17.217Z,67.9
2023-07-05T00:49:39.576Z,68.1
2023-07-05T00:50:24.224Z,68.9
2023-07-05T00:50:46.579Z,68.3
2023-07-05T00:51:31.187Z,68.3
2023-07-05T00:51:53.492Z,68.5
2023-07-05T00:52:38.162Z,68.1
2023-07-05T00:53:00.446Z,68.1
2023-07-05T00:53:45.092Z,67.8
2023-07-05T00:54:07.416Z,68.4
2023-07-05T00:54:52.109Z,68.5
2023-07-05T00:55:14.514Z,68.6
2023-07-05T00:55:56.110Z,69
2023-07-05T00:56:18.630Z,69.3
2023-07-05T00:57:03.294Z,69.5
2023-07-05T00:57:25.620Z,69.7
2023-07-05T00:58:10.219Z,70.1
2023-07-05T00:58:32.536Z,69.7
2023-07-05T00:59:17.231Z,69.7
2023-07-05T00:59:39.541Z,69
2023-07-05T01:00:24.236Z,68.4
2023-07-05T01:00:46.617Z,68.9
2023-07-05T01:01:31.522Z,69.3
2023-07-05T01:02:04.812Z,68.8
2023-07-05T01:02:49.523Z,69.1
2023-07-05T01:03:11.881Z,69
2023-07-05T01:03:56.537Z,70.2
2023-07-05T01:04:18.894Z,69.7
2023-07-05T01:05:03.608Z,69.2
2023-07-05T01:05:26.052Z,68.7
2023-07-05T01:06:07.366Z,68.5
2023-07-05T01:06:29.697Z,69
2023-07-05T01:07:14.338Z,68.4
2023-07-05T01:07:36.625Z,68.4
2023-07-05T01:08:21.243Z,67.9
2023-07-05T01:08:43.561Z,68.6
2023-07-05T01:09:28.231Z,68.1
2023-07-05T01:09:50.553Z,69.1
2023-07-05T01:10:35.307Z,68.7
2023-07-05T01:10:57.639Z,68.3
2023-07-05T01:11:42.291Z,69.2
2023-07-05T01:12:04.616Z,69.3
2023-07-05T01:12:49.225Z,68.9
2023-07-05T01:13:11.558Z,68.7
2023-07-05T01:13:56.313Z,68.4
2023-07-05T01:14:18.721Z,67.8
2023-07-05T01:15:03.410Z,68.3
2023-07-05T01:15:25.841Z,68.6
2023-07-05T01:16:10.482Z,68.5
2023-07-05T01:16:29.357Z,68.2
2023-07-05T01:17:14.062Z,67.8
2023-07-05T01:17:36.450Z,67.8
2023-07-05T01:18:21.146Z,67.5
2023-07-05T01:18:43.469Z,67.2
2023-07-05T01:19:28.120Z,67.1
2023-07-05T01:19:50.440Z,67.1
2023-07-05T01:20:35.093Z,66.8
2023-07-05T01:20:57.379Z,66.9
2023-07-05T01:21:42.017Z,66.6
2023-07-05T01:22:04.363Z,67.3
2023-07-05T01:22:49.000Z,66.8
2023-07-05T01:23:11.347Z,66.8
2023-07-05T01:23:56.001Z,66.8
2023-07-05T01:24:18.324Z,66.6
2023-07-05T01:25:03.087Z,67.4
2023-07-05T01:25:25.495Z,66.5
2023-07-05T01:26:10.122Z,67.4
2023-07-05T01:26:32.454Z,66.9
2023-07-05T01:27:13.596Z,67.1
2023-07-05T01:27:35.955Z,67
2023-07-05T01:28:20.610Z,67.9
2023-07-05T01:28:42.932Z,67.8
2023-07-05T01:29:27.574Z,67.7
2023-07-05T01:29:49.907Z,68.6
2023-07-05T01:30:34.515Z,67.9
2023-07-05T01:30:56.887Z,67.6
2023-07-05T01:31:41.481Z,67.6
2023-07-05T01:32:03.812Z,67.3
2023-07-05T01:32:48.546Z,67.7
2023-07-05T01:33:10.912Z,67.7
2023-07-05T01:33:55.560Z,67.8
2023-07-05T01:34:17.886Z,67.4
2023-07-05T01:35:02.493Z,67.7
2023-07-05T01:35:24.821Z,67.4
2023-07-05T01:36:09.478Z,67.8
2023-07-05T01:36:31.806Z,68.1
2023-07-05T01:37:13.233Z,68.8
2023-07-05T01:37:35.629Z,68.9
2023-07-05T01:38:20.268Z,68.9
2023-07-05T01:38:42.589Z,69.4
2023-07-05T01:39:27.208Z,69.3
2023-07-05T01:39:49.535Z,68.8
2023-07-05T01:40:34.174Z,68.6
2023-07-05T01:40:56.500Z,69.1
2023-07-05T01:41:41.226Z,69.9
2023-07-05T01:42:03.608Z,69.9
2023-07-05T01:42:48.286Z,69.8
2023-07-05T01:43:10.579Z,70.3
2023-07-05T01:43:55.202Z,69.6
2023-07-05T01:44:17.516Z,69.7
2023-07-05T01:45:02.216Z,69.1
2023-07-05T01:45:24.486Z,69.1
2023-07-05T01:46:09.173Z,69.2
2023-07-05T01:46:31.561Z,69.5
2023-07-05T01:47:16.293Z,70.1
2023-07-05T01:47:35.299Z,70.1
2023-07-05T01:48:19.831Z,69.9
2023-07-05T01:48:42.210Z,70.7
2023-07-05T01:49:26.868Z,69.7
2023-07-05T01:49:49.198Z,68.9
2023-07-05T01:50:33.886Z,68.5
2023-07-05T01:50:56.214Z,68.6
2023-07-05T01:51:40.977Z,68.6
2023-07-05T01:52:03.272Z,68.1
2023-07-05T01:52:47.885Z,68.7
2023-07-05T01:53:10.275Z,68.5
2023-07-05T01:53:54.858Z,70.3
2023-07-05T01:54:17.185Z,70.4
2023-07-05T01:55:01.895Z,70.6
2023-07-05T01:55:24.192Z,70.2
2023-07-05T01:56:08.846Z,69.4
2023-07-05T01:56:31.169Z,68.8
2023-07-05T01:57:15.791Z,69.2
2023-07-05T01:57:38.093Z,69
2023-07-05T01:58:19.696Z,68.5
2023-07-05T01:58:41.992Z,69.6
2023-07-05T01:59:26.641Z,68.9
2023-07-05T01:59:48.976Z,68.2
2023-07-05T02:00:33.720Z,69.2
2023-07-05T02:00:56.130Z,68.3
2023-07-05T02:01:40.870Z,69.3
2023-07-05T02:02:03.286Z,69.1
2023-07-05T02:02:48.254Z,69.4
2023-07-05T02:03:10.774Z,69.3
2023-07-05T02:03:55.449Z,69.2
2023-07-05T02:04:17.772Z,69.1
2023-07-05T02:05:02.433Z,69.2
2023-07-05T02:05:24.742Z,68.4
2023-07-05T02:06:09.423Z,68.9
2023-07-05T02:06:31.749Z,68.1
2023-07-05T02:07:16.392Z,68.3
2023-07-05T02:07:38.728Z,69.5
2023-07-05T02:08:19.892Z,69.1
2023-07-05T02:08:42.171Z,69.8
2023-07-05T02:09:26.841Z,69.8
2023-07-05T02:09:49.187Z,68.8
2023-07-05T02:10:33.767Z,69.6
2023-07-05T02:10:56.148Z,69.2
2023-07-05T02:11:40.823Z,68.7
2023-07-05T02:12:03.087Z,68.2
2023-07-05T02:12:47.731Z,68.8
2023-07-05T02:13:10.107Z,68.2
2023-07-05T02:13:54.825Z,69.2
2023-07-05T02:14:17.277Z,68.6
2023-07-05T02:15:01.912Z,69.1
2023-07-05T02:15:24.268Z,68.7
2023-07-05T02:16:08.894Z,69.3
2023-07-05T02:16:31.212Z,69.4
2023-07-05T02:17:15.828Z,70.8
2023-07-05T02:17:39.257Z,70.3
2023-07-05T02:18:24.165Z,69.7
2023-07-05T02:18:43.226Z,69.2
2023-07-05T02:19:27.924Z,69.5
2023-07-05T02:19:50.320Z,68.4
2023-07-05T02:20:35.020Z,69.5
2023-07-05T02:20:57.395Z,69
2023-07-05T02:21:42.007Z,69.4
2023-07-05T02:22:04.360Z,70
2023-07-05T02:22:49.094Z,70.1
2023-07-05T02:23:11.362Z,70.3
2023-07-05T02:23:56.007Z,69.3
2023-07-05T02:24:18.333Z,69.9
2023-07-05T02:25:02.992Z,70.4
2023-07-05T02:25:25.335Z,70.4
2023-07-05T02:26:09.993Z,69.2
2023-07-05T02:26:32.314Z,68.5
2023-07-05T02:27:16.966Z,68.5
2023-07-05T02:27:39.284Z,69.1
2023-07-05T02:28:23.933Z,69.2
2023-07-05T02:28:46.270Z,69.3
2023-07-05T02:29:27.485Z,68.8
2023-07-05T02:29:49.812Z,69.3
2023-07-05T02:30:34.480Z,68.8
2023-07-05T02:30:56.927Z,68.9
2023-07-05T02:31:41.570Z,69.5
2023-07-05T02:32:03.894Z,68.6
2023-07-05T02:32:48.727Z,68.6
2023-07-05T02:33:11.064Z,68.2
2023-07-05T02:33:55.678Z,68.7
2023-07-05T02:34:18.024Z,68.3
2023-07-05T02:35:02.663Z,69
2023-07-05T02:35:24.971Z,68.4
2023-07-05T02:36:09.806Z,67.8
2023-07-05T02:36:32.187Z,68.6
2023-07-05T02:37:16.852Z,68.3
2023-07-05T02:37:39.161Z,68.6
2023-07-05T02:38:23.781Z,68.6
2023-07-05T02:38:46.098Z,68.5
2023-07-05T02:39:27.331Z,68.6
2023-07-05T02:39:49.721Z,67.9
2023-07-05T02:40:34.305Z,68.4
2023-07-05T02:40:56.687Z,68.8
2023-07-05T02:41:41.390Z,67.6
2023-07-05T02:42:03.766Z,67.2
2023-07-05T02:42:48.476Z,67.2
2023-07-05T02:43:10.794Z,67.7
2023-07-05T02:43:55.459Z,67.7
2023-07-05T02:44:17.798Z,67.6
2023-07-05T02:45:05.127Z,67.1
2023-07-05T02:45:27.452Z,66.7
2023-07-05T02:46:12.088Z,66.7
2023-07-05T02:46:34.506Z,67.3
2023-07-05T02:47:19.127Z,66.6
2023-07-05T02:47:41.471Z,66.6
2023-07-05T02:48:26.127Z,66.6
2023-07-05T02:48:48.495Z,66.2
2023-07-05T02:49:29.735Z,66.3
2023-07-05T02:49:52.061Z,66.2
2023-07-05T02:50:36.695Z,65.9
2023-07-05T02:50:59.023Z,66.5
2023-07-05T02:51:43.667Z,65.8
2023-07-05T02:52:05.964Z,65.7
2023-07-05T02:52:50.619Z,65.4
2023-07-05T02:53:12.928Z,65.7
2023-07-05T02:53:57.581Z,66.2
2023-07-05T02:54:19.861Z,66.8
2023-07-05T02:55:04.473Z,67.6
2023-07-05T02:55:26.792Z,67.3
2023-07-05T02:56:11.439Z,66.9
2023-07-05T02:56:33.780Z,66.4
2023-07-05T02:57:18.377Z,66
2023-07-05T02:57:40.699Z,65.9
2023-07-05T02:58:25.352Z,65.5
2023-07-05T02:58:47.699Z,65.4
2023-07-05T02:59:32.400Z,65.2
2023-07-05T02:59:51.361Z,65.2
2023-07-05T03:00:36.014Z,66.3
2023-07-05T03:00:58.362Z,66.8
2023-07-05T03:01:43.174Z,67
2023-07-05T03:02:05.603Z,67.1
2023-07-05T03:02:50.458Z,67.3
2023-07-05T03:03:12.847Z,66.7
2023-07-05T03:03:57.507Z,67.5
2023-07-05T03:04:19.946Z,67.2
2023-07-05T03:05:04.732Z,66.8
2023-07-05T03:05:27.044Z,66.4
2023-07-05T03:06:11.692Z,67.2
2023-07-05T03:06:34.021Z,66.7
2023-07-05T03:07:18.657Z,67
2023-07-05T03:07:41.070Z,66.2
2023-07-05T03:08:25.663Z,65.8
2023-07-05T03:08:48.004Z,65.8
2023-07-05T03:09:32.655Z,65.4
2023-07-05T03:09:54.934Z,65.2
2023-07-05T03:10:36.129Z,64.7
2023-07-05T03:10:58.495Z,64.8
2023-07-05T03:11:43.110Z,64.7
2023-07-05T03:12:05.415Z,64.5
2023-07-05T03:12:50.042Z,65.2
2023-07-05T03:13:12.361Z,64.9
2023-07-05T03:13:57.125Z,65.4
2023-07-05T03:14:19.456Z,65
2023-07-05T03:15:07.035Z,65.8
2023-07-05T03:15:29.367Z,65.6
2023-07-05T03:16:14.089Z,65.3
2023-07-05T03:16:36.545Z,65.6
2023-07-05T03:17:21.357Z,65.8
2023-07-05T03:17:43.908Z,65.9
2023-07-05T03:18:28.610Z,66.6
2023-07-05T03:18:50.939Z,67.1
2023-07-05T03:19:35.580Z,66.6
2023-07-05T03:19:57.884Z,66.6
2023-07-05T03:20:39.036Z,66.8
2023-07-05T03:21:01.360Z,67.2
2023-07-05T03:21:46.004Z,66.3
2023-07-05T03:22:08.327Z,66
2023-07-05T03:22:52.968Z,66.8
2023-07-05T03:23:15.330Z,67.6
2023-07-05T03:23:59.982Z,67.9
2023-07-05T03:24:26.039Z,68
2023-07-05T03:25:10.739Z,67.9
2023-07-05T03:25:33.037Z,67.1
2023-07-05T03:26:17.678Z,67.6
2023-07-05T03:26:40.020Z,67.6
2023-07-05T03:27:24.649Z,67.8
2023-07-05T03:27:46.990Z,67.4
2023-07-05T03:28:31.657Z,67.5
2023-07-05T03:28:53.973Z,67.4
2023-07-05T03:29:38.640Z,66.9
2023-07-05T03:30:00.952Z,66.5
2023-07-05T03:30:42.079Z,66.7
2023-07-05T03:31:04.502Z,66.4
2023-07-05T03:31:49.258Z,65.7
2023-07-05T03:32:11.639Z,65.9
2023-07-05T03:32:56.341Z,66.1
2023-07-05T03:33:18.692Z,66.5
2023-07-05T03:34:03.337Z,66.2
2023-07-05T03:34:25.630Z,66.1
2023-07-05T03:35:10.278Z,66.2
2023-07-05T03:35:32.692Z,66.4
2023-07-05T03:36:17.372Z,66.5
2023-07-05T03:36:39.755Z,66.8
2023-07-05T03:37:24.456Z,67
2023-07-05T03:37:46.773Z,67.1
2023-07-05T03:38:31.423Z,68.1
2023-07-05T03:38:53.756Z,67.3
2023-07-05T03:39:38.477Z,68.2
2023-07-05T03:40:00.822Z,67.9
2023-07-05T03:40:42.001Z,67.3
2023-07-05T03:41:04.417Z,66.6
2023-07-05T03:41:48.891Z,65.8
2023-07-05T03:42:11.180Z,66.2
2023-07-05T03:42:55.921Z,65.9
2023-07-05T03:43:18.223Z,66.4
2023-07-05T03:44:02.873Z,66.4
2023-07-05T03:44:25.212Z,66.6
2023-07-05T03:45:09.828Z,65.7
2023-07-05T03:45:32.183Z,65.3
2023-07-05T03:46:16.916Z,65.1
2023-07-05T03:46:39.470Z,65.4
2023-07-05T03:47:24.163Z,65.8
2023-07-05T03:47:46.624Z,65.3
2023-07-05T03:48:31.258Z,65.7
2023-07-05T03:48:53.583Z,65.4
2023-07-05T03:49:38.344Z,65.3
2023-07-05T03:50:00.651Z,66.1
2023-07-05T03:50:45.351Z,66.1
2023-07-05T03:51:04.191Z,66.7
2023-07-05T03:51:48.794Z,65.8
2023-07-05T03:52:11.127Z,65.6
2023-07-05T03:52:55.824Z,66
2023-07-05T03:53:18.174Z,65.2
2023-07-05T03:54:02.733Z,65.8
2023-07-05T03:54:25.056Z,65.4
2023-07-05T03:55:09.749Z,66.1
2023-07-05T03:55:32.067Z,65.9
2023-07-05T03:56:16.709Z,65.6
2023-07-05T03:56:39.149Z,65.3
2023-07-05T03:57:23.746Z,66
2023-07-05T03:57:46.076Z,65.7
2023-07-05T03:58:30.776Z,66.6
2023-07-05T03:58:53.045Z,66.9
2023-07-05T03:59:37.760Z,66.7
2023-07-05T04:00:00.218Z,66.7
2023-07-05T04:00:44.904Z,66.8
2023-07-05T04:01:07.230Z,67.2
2023-07-05T04:01:48.861Z,67.8
2023-07-05T04:02:11.406Z,67.9
2023-07-05T04:02:56.131Z,68.1
2023-07-05T04:03:18.558Z,68.7
2023-07-05T04:04:03.403Z,68.6
2023-07-05T04:04:25.858Z,69.2
2023-07-05T04:05:10.527Z,69.7
2023-07-05T04:05:32.865Z,68.5
2023-07-05T04:06:17.606Z,67.8
2023-07-05T04:06:39.944Z,67.4
2023-07-05T04:07:24.536Z,67.8
2023-07-05T04:07:46.933Z,67.3
2023-07-05T04:08:31.510Z,67.1
2023-07-05T04:08:53.834Z,66.9
2023-07-05T04:09:38.555Z,66.7
2023-07-05T04:10:00.967Z,66.4
2023-07-05T04:10:45.591Z,66.3
2023-07-05T04:11:07.913Z,66.2
2023-07-05T04:11:49.188Z,66.3
2023-07-05T04:12:11.475Z,66.5
2023-07-05T04:12:56.120Z,66.3
2023-07-05T04:13:18.574Z,66.2
2023-07-05T04:14:03.332Z,66.2
2023-07-05T04:14:25.864Z,66
2023-07-05T04:15:10.513Z,66.2
2023-07-05T04:15:32.881Z,66.1
2023-07-05T04:16:17.723Z,68.8
2023-07-05T04:16:40.087Z,68.5
2023-07-05T04:17:24.784Z,68.3
2023-07-05T04:17:47.166Z,69.2
2023-07-05T04:18:31.796Z,68
2023-07-05T04:18:54.120Z,68.1
2023-07-05T04:19:38.807Z,68.4
2023-07-05T04:20:01.168Z,68
2023-07-05T04:20:45.867Z,68.2
2023-07-05T04:21:08.203Z,68.6
2023-07-05T04:21:49.395Z,68
2023-07-05T04:22:11.710Z,67.6
2023-07-05T04:22:56.325Z,68.7
2023-07-05T04:23:18.658Z,69.4
2023-07-05T04:24:03.300Z,69.6
2023-07-05T04:24:25.591Z,70
2023-07-05T04:25:10.362Z,70.1
2023-07-05T04:25:32.875Z,70.1
2023-07-05T04:26:17.599Z,69
2023-07-05T04:26:39.978Z,69
2023-07-05T04:27:24.736Z,69.7
2023-07-05T04:27:47.809Z,70
2023-07-05T04:28:32.564Z,68.1
2023-07-05T04:28:54.951Z,69.1
2023-07-05T04:29:39.563Z,69.2
2023-07-05T04:30:02.019Z,69.8
2023-07-05T04:30:46.623Z,69.2
2023-07-05T04:31:08.976Z,70.7
2023-07-05T04:31:50.256Z,70.3
2023-07-05T04:32:12.581Z,71.1
2023-07-05T04:32:57.308Z,71.4
2023-07-05T04:33:19.572Z,70.8
2023-07-05T04:34:04.160Z,70.2
2023-07-05T04:34:26.490Z,71
2023-07-05T04:35:11.173Z,70
2023-07-05T04:35:33.495Z,70.7
2023-07-05T04:36:29.738Z,70.4
2023-07-05T04:36:52.136Z,71.7
2023-07-05T04:37:39.263Z,71
2023-07-05T04:38:01.523Z,70.6
2023-07-05T04:38:46.171Z,70.2
2023-07-05T04:39:08.510Z,70.6
2023-07-05T04:39:53.278Z,71.1
2023-07-05T04:40:15.609Z,69.6
2023-07-05T04:41:00.255Z,71.4
2023-07-05T04:41:22.635Z,70.7
2023-07-05T04:42:03.851Z,71.8
2023-07-05T04:42:26.135Z,70.7
2023-07-05T04:43:10.818Z,71
2023-07-05T04:43:33.163Z,70.1
2023-07-05T04:44:17.789Z,69.4
2023-07-05T04:44:40.108Z,70.1
2023-07-05T04:45:24.751Z,71.1
2023-07-05T04:45:47.149Z,71.5
2023-07-05T04:46:31.906Z,70.4
2023-07-05T04:46:54.220Z,70.4
2023-07-05T04:47:38.972Z,70.6
2023-07-05T04:48:01.413Z,70.7
2023-07-05T04:48:46.079Z,69.6
2023-07-05T04:49:08.421Z,69.2
2023-07-05T04:49:53.046Z,67.1
2023-07-05T04:50:15.338Z,66.3
2023-07-05T04:51:00.046Z,65.1
2023-07-05T04:51:22.312Z,65.2
2023-07-05T04:52:06.956Z,65.8
2023-07-05T04:52:25.867Z,65.8
2023-07-05T04:53:10.451Z,65.4
2023-07-05T04:53:32.785Z,65.2
2023-07-05T04:54:17.418Z,64.9
2023-07-05T04:54:39.744Z,64.7
2023-07-05T04:55:24.432Z,64.4
2023-07-05T04:55:46.755Z,64.1
2023-07-05T04:56:31.394Z,64.1
2023-07-05T04:56:53.719Z,64.1
2023-07-05T04:57:38.395Z,63.7
2023-07-05T04:58:00.653Z,63.3
2023-07-05T04:58:45.309Z,62.9
2023-07-05T04:59:07.726Z,62.4
2023-07-05T04:59:52.419Z,63.4
2023-07-05T05:00:14.736Z,63
2023-07-05T05:01:00.295Z,62.5
2023-07-05T05:01:23.021Z,62.7
2023-07-05T05:02:08.057Z,63
2023-07-05T05:02:27.346Z,63.1
2023-07-05T05:03:12.242Z,63.5
2023-07-05T05:03:34.753Z,63.4
2023-07-05T05:04:19.412Z,63.2
2023-07-05T05:04:42.265Z,63.2
2023-07-05T05:05:26.860Z,63.1
2023-07-05T05:05:49.193Z,63.1
2023-07-05T05:06:34.197Z,63.3
2023-07-05T05:06:56.526Z,62.6
2023-07-05T05:07:41.169Z,62.9
2023-07-05T05:08:03.498Z,62.9
2023-07-05T05:08:48.180Z,63.2
2023-07-05T05:09:10.505Z,63.3
2023-07-05T05:09:55.148Z,63.5
2023-07-05T05:10:17.473Z,63.5
2023-07-05T05:11:02.130Z,63.4
2023-07-05T05:11:24.407Z,63.4
2023-07-05T05:12:09.057Z,63.2
2023-07-05T05:12:27.989Z,63.2
2023-07-05T05:13:12.683Z,63.2
2023-07-05T05:13:35.137Z,63.3
2023-07-05T05:14:19.822Z,63
2023-07-05T05:14:42.245Z,63
2023-07-05T05:15:26.900Z,63
2023-07-05T05:15:49.246Z,63
2023-07-05T05:16:33.955Z,62.5
2023-07-05T05:16:56.382Z,63.2
2023-07-05T05:17:41.123Z,66.2
2023-07-05T05:18:03.599Z,65.5
2023-07-05T05:18:48.247Z,65.3
2023-07-05T05:19:10.601Z,65.1
2023-07-05T05:19:55.202Z,64.4
2023-07-05T05:20:17.516Z,64.3
2023-07-05T05:21:02.202Z,63.9
2023-07-05T05:21:24.620Z,63.7
2023-07-05T05:22:09.222Z,63.4
2023-07-05T05:22:31.589Z,63.6
2023-07-05T05:23:12.865Z,63.3
2023-07-05T05:23:35.184Z,63.1
2023-07-05T05:24:19.688Z,63.1
2023-07-05T05:24:42.022Z,63.3
2023-07-05T05:25:26.665Z,63.1
2023-07-05T05:25:48.985Z,62.9
2023-07-05T05:26:33.711Z,63
2023-07-05T05:26:56.097Z,63
2023-07-05T05:27:40.797Z,63.1
2023-07-05T05:28:03.400Z,62.9
2023-07-05T05:28:48.537Z,63
2023-07-05T05:29:10.907Z,63.1
2023-07-05T05:29:55.570Z,62.8
2023-07-05T05:30:17.897Z,63
2023-07-05T05:31:02.587Z,63.1
2023-07-05T05:31:25.052Z,63.1
2023-07-05T05:32:09.648Z,62.9
2023-07-05T05:32:32.040Z,62.9
2023-07-05T05:33:13.242Z,62.8
2023-07-05T05:33:35.531Z,62.8
2023-07-05T05:34:20.213Z,62.9
2023-07-05T05:34:42.536Z,63
2023-07-05T05:35:27.182Z,62.7
2023-07-05T05:35:49.546Z,62.8
2023-07-05T05:36:34.128Z,62.9
2023-07-05T05:36:56.439Z,62.7
2023-07-05T05:37:41.125Z,62.7
2023-07-05T05:38:03.449Z,62.5
2023-07-05T05:38:48.066Z,62.8
2023-07-05T05:39:10.382Z,62.6
2023-07-05T05:39:55.038Z,62.6
2023-07-05T05:40:17.368Z,62.5
2023-07-05T05:41:01.998Z,62.5
2023-07-05T05:41:24.377Z,62.5
2023-07-05T05:42:09.014Z,62.7
2023-07-05T05:42:31.331Z,62.5
2023-07-05T05:43:15.973Z,62.4
2023-07-05T05:43:34.821Z,62.4
2023-07-05T05:44:19.428Z,62.1
2023-07-05T05:44:41.759Z,62.5
2023-07-05T05:45:26.451Z,62.3
2023-07-05T05:45:48.757Z,62.1
2023-07-05T05:46:33.404Z,61.8
2023-07-05T05:46:55.872Z,61.7
2023-07-05T05:47:40.567Z,61.5
2023-07-05T05:48:03.101Z,61.3
2023-07-05T05:48:47.727Z,61.5
2023-07-05T05:49:10.158Z,61.5
2023-07-05T05:49:54.836Z,61.5
2023-07-05T05:50:17.163Z,61.5
2023-07-05T05:51:01.817Z,61.8
2023-07-05T05:51:24.129Z,62.1
2023-07-05T05:52:08.763Z,62
2023-07-05T05:52:31.062Z,62.1
2023-07-05T05:53:15.709Z,62.2
2023-07-05T05:53:38.035Z,62.3
2023-07-05T05:54:19.540Z,62.1
2023-07-05T05:54:44.481Z,62.2
2023-07-05T05:55:29.173Z,62
2023-07-05T05:55:51.509Z,61.8
2023-07-05T05:56:36.126Z,61.7
2023-07-05T05:56:58.436Z,62.1
2023-07-05T05:57:43.089Z,62
2023-07-05T05:58:05.464Z,62.3
2023-07-05T05:58:50.105Z,62
2023-07-05T05:59:12.413Z,62.2
2023-07-05T05:59:57.090Z,62
2023-07-05T06:00:19.499Z,61.9
2023-07-05T06:01:04.102Z,61.7
2023-07-05T06:01:26.527Z,61.9
2023-07-05T06:02:11.364Z,61.9
2023-07-05T06:02:33.908Z,61.7
2023-07-05T06:03:18.886Z,61.7
2023-07-05T06:03:41.685Z,61.8
2023-07-05T06:04:23.100Z,61.5
2023-07-05T06:04:45.437Z,61.5
2023-07-05T06:05:30.091Z,61.5
2023-07-05T06:05:52.374Z,61.4
2023-07-05T06:06:37.017Z,61.4
2023-07-05T06:06:59.329Z,61.3
2023-07-05T06:07:44.018Z,61.5
2023-07-05T06:08:06.352Z,61.3
2023-07-05T06:08:51.744Z,61.3
2023-07-05T06:09:14.097Z,61.1
2023-07-05T06:09:58.746Z,61.1
2023-07-05T06:10:21.061Z,61.4
2023-07-05T06:11:05.722Z,61.1
2023-07-05T06:11:28.034Z,61.1
2023-07-05T06:12:12.728Z,61
2023-07-05T06:12:35.074Z,61
2023-07-05T06:13:19.692Z,61.1
2023-07-05T06:13:42.115Z,61
2023-07-05T06:14:23.487Z,61
2023-07-05T06:14:45.810Z,60.9
2023-07-05T06:15:30.501Z,60.9
2023-07-05T06:16:14.174Z,60.8
2023-07-05T06:16:37.229Z,60.8
2023-07-05T06:17:22.029Z,60.9
2023-07-05T06:17:44.447Z,61
2023-07-05T06:18:29.233Z,60.9
2023-07-05T06:18:51.585Z,60.8
2023-07-05T06:19:36.236Z,60.8
2023-07-05T06:19:58.553Z,60.9
2023-07-05T06:20:43.205Z,60.8
2023-07-05T06:21:05.486Z,60.9
2023-07-05T06:21:50.171Z,60.9
2023-07-05T06:22:12.454Z,60.8
2023-07-05T06:22:57.117Z,61.2
2023-07-05T06:23:19.446Z,61
2023-07-05T06:24:04.102Z,61
2023-07-05T06:24:26.459Z,60.7
2023-07-05T06:25:07.668Z,60.9
2023-07-05T06:25:30.021Z,61
2023-07-05T06:26:17.568Z,60.7
2023-07-05T06:26:39.893Z,60.7
2023-07-05T06:27:24.606Z,60.7
2023-07-05T06:27:46.943Z,60.7
2023-07-05T06:28:31.565Z,60.4
2023-07-05T06:28:53.870Z,60.4
2023-07-05T06:29:38.517Z,60.6
2023-07-05T06:30:00.864Z,60.4
2023-07-05T06:30:45.497Z,60.6
2023-07-05T06:31:07.997Z,60.6
2023-07-05T06:31:54.733Z,60.6
2023-07-05T06:32:17.069Z,60.6
2023-07-05T06:33:01.813Z,60.6
2023-07-05T06:33:24.114Z,60.4
2023-07-05T06:34:08.753Z,60.6
2023-07-05T06:34:31.101Z,60.7
2023-07-05T06:35:12.280Z,60.5
2023-07-05T06:35:34.568Z,60.5
2023-07-05T06:36:19.206Z,60.5
2023-07-05T06:36:41.532Z,60.5
2023-07-05T06:37:26.181Z,60.7
2023-07-05T06:37:48.527Z,60.8
2023-07-05T06:38:33.186Z,60.6
2023-07-05T06:38:55.512Z,60.6
2023-07-05T06:39:40.163Z,60.4
2023-07-05T06:40:02.496Z,60.2
2023-07-05T06:40:47.094Z,60.4
2023-07-05T06:41:09.423Z,60.2
2023-07-05T06:41:54.079Z,60.3
2023-07-05T06:42:16.456Z,60.2
2023-07-05T06:43:01.070Z,60.3
2023-07-05T06:43:23.406Z,60.3
2023-07-05T06:44:08.100Z,60.5
2023-07-05T06:44:30.367Z,60.2
2023-07-05T06:45:11.552Z,60.4
2023-07-05T06:45:33.862Z,60.2
2023-07-05T06:46:18.579Z,60.5
2023-07-05T06:46:40.982Z,60.3
2023-07-05T06:47:25.873Z,60.1
2023-07-05T06:47:48.335Z,60.2
2023-07-05T06:48:32.939Z,60.5
2023-07-05T06:48:55.241Z,60.4
2023-07-05T06:49:43.889Z,60.3
2023-07-05T06:50:06.356Z,60.1
2023-07-05T06:50:51.070Z,60.1
2023-07-05T06:51:13.416Z,60.1
2023-07-05T06:51:58.070Z,60.4
2023-07-05T06:52:20.324Z,60.2
2023-07-05T06:53:42.590Z,60.1
2023-07-05T06:54:10.848Z,60.2
2023-07-05T06:54:33.167Z,60.2
2023-07-05T06:55:14.401Z,60.3
2023-07-05T06:55:36.693Z,60.1
2023-07-05T06:56:21.387Z,60.2
2023-07-05T06:56:43.634Z,60.3
2023-07-05T06:57:28.293Z,60.3
2023-07-05T06:57:50.600Z,60.3
2023-07-05T06:58:35.245Z,60.2
2023-07-05T06:58:57.568Z,60.1
2023-07-05T06:59:42.356Z,60.4
2023-07-05T07:00:04.709Z,60.2
2023-07-05T07:00:49.327Z,60.3
2023-07-05T07:01:13.980Z,60.2
2023-07-05T07:01:58.689Z,60.4
2023-07-05T07:02:21.125Z,60.1
2023-07-05T07:03:05.886Z,60.2
2023-07-05T07:03:28.220Z,60.4
2023-07-05T07:04:13.013Z,60.3
2023-07-05T07:04:35.392Z,60.4
2023-07-05T07:05:16.634Z,60.2
2023-07-05T07:05:38.919Z,60
2023-07-05T07:06:23.671Z,60.2
2023-07-05T07:06:45.994Z,60.4
2023-07-05T07:07:31.484Z,60.1
2023-07-05T07:07:53.753Z,60.2
2023-07-05T07:08:38.400Z,60.1
2023-07-05T07:09:00.724Z,60
2023-07-05T07:09:45.367Z,60
2023-07-05T07:10:07.724Z,60.3
2023-07-05T07:10:52.429Z,60.1
2023-07-05T07:11:15.205Z,60.4
2023-07-05T07:11:59.853Z,60
2023-07-05T07:12:22.144Z,60.3
2023-07-05T07:13:06.789Z,60.4
2023-07-05T07:13:29.141Z,60.3
2023-07-05T07:14:13.997Z,60.5
2023-07-05T07:14:36.416Z,60.5
2023-07-05T07:15:17.694Z,60.6
2023-07-05T07:15:39.980Z,60.6
2023-07-05T07:16:24.745Z,60.4
2023-07-05T07:16:47.182Z,60.5
2023-07-05T07:17:31.975Z,60.4
2023-07-05T07:17:54.536Z,60.2
2023-07-05T07:18:39.376Z,60.1
2023-07-05T07:19:01.722Z,60.4
2023-07-05T07:19:47.648Z,60.2
2023-07-05T07:20:09.910Z,60.3
2023-07-05T07:20:55.076Z,60.2
2023-07-05T07:21:17.739Z,60.2
2023-07-05T07:22:02.439Z,60.4
2023-07-05T07:22:24.763Z,60.2
2023-07-05T07:23:09.563Z,60.3
2023-07-05T07:23:31.817Z,60.2
2023-07-05T07:24:16.505Z,60.1
2023-07-05T07:24:38.857Z,60.4
2023-07-05T07:25:22.068Z,60.2
2023-07-05T07:25:44.365Z,60.1
2023-07-05T07:26:29.009Z,60.3
2023-07-05T07:26:51.359Z,60
2023-07-05T07:27:36.035Z,60